createdAt,value
2022-10-11T00:01:51.611Z,75.30
2022-10-11T00:04:19.675Z,75.68
2022-10-11T00:06:47.298Z,75.38
2022-10-11T00:09:14.703Z,76.94
2022-10-11T00:11:41.142Z,76.59
2022-10-11T00:14:08.250Z,77.64
2022-10-11T00:16:35.046Z,78.04
2022-10-11T00:19:01.480Z,77.28
2022-10-11T00:21:28.027Z,77.56
2022-10-11T00:23:54.848Z,79.29
2022-10-11T00:26:21.348Z,79.33
2022-10-11T00:28:47.947Z,79.67
2022-10-11T00:31:16.557Z,79.28
2022-10-11T00:33:42.987Z,79.52
2022-10-11T00:36:10.136Z,80.46
2022-10-11T00:38:38.353Z,80.41
2022-10-11T00:41:05.156Z,80.36
2022-10-11T00:43:32.498Z,80.54
2022-10-11T00:46:04.306Z,80.27
2022-10-11T00:48:57.269Z,81.12
2022-10-11T00:51:32.396Z,81.41
2022-10-11T00:54:00.913Z,81.49
2022-10-11T00:56:31.290Z,81.81
2022-10-11T00:59:00.379Z,81.72
2022-10-11T01:01:27.219Z,82.52
2022-10-11T01:03:54.014Z,82.61
2022-10-11T01:06:20.740Z,82.76
2022-10-11T01:08:47.283Z,82.98
2022-10-11T01:11:15.959Z,82.94
2022-10-11T01:14:00.030Z,82.96
2022-10-11T01:16:33.518Z,82.90
2022-10-11T01:19:16.309Z,82.06
2022-10-11T01:21:47.881Z,82.42
2022-10-11T01:24:26.220Z,82.70
2022-10-11T01:27:25.493Z,83.08
2022-10-11T01:30:04.415Z,83.55
2022-10-11T01:32:40.847Z,82.73
2022-10-11T01:35:16.640Z,82.69
2022-10-11T01:38:03.809Z,82.97
2022-10-11T01:40:41.654Z,84.37
2022-10-11T01:43:09.943Z,84.74
2022-10-11T01:45:37.230Z,84.77
2022-10-11T01:48:09.178Z,85.72
2022-10-11T01:50:44.218Z,85.34
2022-10-11T01:53:15.010Z,85.43
2022-10-11T01:55:53.880Z,86.11
2022-10-11T01:58:41.701Z,87.02
2022-10-11T02:01:27.174Z,86.85
2022-10-11T02:04:03.482Z,86.55
2022-10-11T02:06:37.834Z,86.93
2022-10-11T02:09:22.302Z,86.82
2022-10-11T02:11:48.815Z,86.27
2022-10-11T02:14:23.686Z,86.64
2022-10-11T02:16:58.503Z,86.74
2022-10-11T02:19:29.320Z,86.42
2022-10-11T02:22:07.716Z,87.36
2022-10-11T02:24:36.633Z,88.54
2022-10-11T02:27:04.369Z,88.17
2022-10-11T02:29:33.276Z,90.14
2022-10-11T02:32:00.612Z,90.01
2022-10-11T02:34:40.688Z,90.10
2022-10-11T02:37:26.848Z,89.40
2022-10-11T02:39:56.724Z,89.17
2022-10-11T02:42:29.847Z,89.12
2022-10-11T02:45:01.129Z,89.03
2022-10-11T02:47:29.878Z,89.34
2022-10-11T02:49:56.568Z,89.47
2022-10-11T02:52:22.975Z,89.82
2022-10-11T02:54:49.703Z,89.90
2022-10-11T02:57:16.202Z,90.13
2022-10-11T02:59:42.970Z,90.38
2022-10-11T03:02:10.181Z,90.12
2022-10-11T03:04:38.814Z,91.26
2022-10-11T03:07:05.317Z,90.92
2022-10-11T03:09:31.742Z,91.52
2022-10-11T03:11:58.511Z,91.43
2022-10-11T03:14:25.130Z,91.82
2022-10-11T03:16:52.126Z,92.10
2022-10-11T03:19:19.537Z,92.04
2022-10-11T03:21:46.268Z,91.80
2022-10-11T03:24:12.913Z,91.07
2022-10-11T03:26:39.729Z,91.00
2022-10-11T03:29:07.462Z,91.28
2022-10-11T03:31:33.961Z,90.80
2022-10-11T03:34:00.752Z,91.32
2022-10-11T03:36:27.251Z,90.89
2022-10-11T03:38:55.083Z,91.10
2022-10-11T03:41:21.649Z,91.43
2022-10-11T03:43:48.178Z,90.87
2022-10-11T03:46:15.338Z,90.62
2022-10-11T03:48:41.808Z,90.58
2022-10-11T03:51:08.659Z,90.71
2022-10-11T03:53:35.161Z,90.31
2022-10-11T03:56:07.388Z,90.17
2022-10-11T03:58:34.855Z,89.96
2022-10-11T04:01:01.290Z,89.74
2022-10-11T04:03:27.784Z,89.72
2022-10-11T04:05:55.443Z,89.87
2022-10-11T04:08:22.210Z,89.36
2022-10-11T04:10:48.744Z,89.23
2022-10-11T04:13:16.988Z,88.74
2022-10-11T04:15:43.768Z,88.52
2022-10-11T04:18:10.391Z,88.43
2022-10-11T04:20:36.862Z,88.25
2022-10-11T04:23:03.597Z,87.94
2022-10-11T04:25:30.041Z,87.77
2022-10-11T04:27:56.637Z,87.17
2022-10-11T04:30:23.163Z,87.12
2022-10-11T04:32:49.629Z,86.99
2022-10-11T04:35:16.422Z,86.46
2022-10-11T04:37:42.899Z,86.65
2022-10-11T04:40:10.196Z,86.80
2022-10-11T04:42:36.627Z,86.10
2022-10-11T04:45:03.118Z,86.19
2022-10-11T04:47:29.619Z,86.33
2022-10-11T04:49:56.161Z,85.66
2022-10-11T04:52:25.671Z,85.17
2022-10-11T04:54:52.534Z,85.06
2022-10-11T04:57:19.283Z,85.41
2022-10-11T04:59:49.979Z,85.15
2022-10-11T05:02:16.911Z,84.95
2022-10-11T05:04:43.420Z,85.14
2022-10-11T05:07:09.843Z,85.41
2022-10-11T05:09:36.347Z,84.82
2022-10-11T05:12:02.941Z,84.83
2022-10-11T05:14:29.383Z,85.13
2022-10-11T05:16:55.970Z,85.20
2022-10-11T05:19:22.735Z,85.06
2022-10-11T05:21:49.219Z,85.18
2022-10-11T05:24:15.740Z,85.70
2022-10-11T05:26:42.791Z,86.15
2022-10-11T05:29:09.239Z,85.93
2022-10-11T05:31:36.731Z,85.06
2022-10-11T05:34:03.222Z,86.03
2022-10-11T05:36:29.666Z,85.79
2022-10-11T05:38:56.499Z,85.65
2022-10-11T05:41:22.972Z,85.48
2022-10-11T05:43:49.468Z,85.48
2022-10-11T05:46:15.946Z,84.74
2022-10-11T05:48:42.477Z,84.96
2022-10-11T05:51:10.438Z,84.81
2022-10-11T05:53:38.917Z,84.72
2022-10-11T05:56:06.158Z,85.16
2022-10-11T05:58:36.721Z,85.44
2022-10-11T06:01:03.531Z,85.12
2022-10-11T06:03:30.015Z,85.26
2022-10-11T06:05:57.456Z,85.12
2022-10-11T06:08:24.068Z,85.35
2022-10-11T06:10:50.492Z,84.89
2022-10-11T06:13:17.031Z,84.89
2022-10-11T06:15:43.559Z,84.70
2022-10-11T06:18:09.985Z,84.32
2022-10-11T06:20:36.754Z,84.68
2022-10-11T06:23:04.584Z,84.26
2022-10-11T06:25:31.011Z,84.33
2022-10-11T06:27:57.499Z,84.33
2022-10-11T06:30:24.309Z,83.55
2022-10-11T06:32:50.874Z,83.72
2022-10-11T06:35:17.414Z,83.50
2022-10-11T06:37:43.879Z,83.34
2022-10-11T06:40:10.836Z,83.11
2022-10-11T06:42:37.587Z,82.72
2022-10-11T06:45:04.502Z,81.85
2022-10-11T06:47:30.948Z,82.26
2022-10-11T06:49:59.442Z,81.78
2022-10-11T06:52:25.994Z,81.28
2022-10-11T06:54:52.541Z,81.93
2022-10-11T06:57:19.213Z,81.54
2022-10-11T06:59:45.741Z,81.64
2022-10-11T07:02:12.163Z,80.85
2022-10-11T07:04:40.119Z,80.28
2022-10-11T07:07:06.595Z,80.10
2022-10-11T07:09:34.265Z,79.26
2022-10-11T07:12:01.016Z,79.49
2022-10-11T07:14:28.207Z,79.08
2022-10-11T07:16:54.718Z,78.05
2022-10-11T07:19:22.909Z,77.49
2022-10-11T07:22:08.128Z,76.44
2022-10-11T07:24:34.958Z,75.27
2022-10-11T07:27:01.675Z,74.52
2022-10-11T07:29:28.170Z,74.01
2022-10-11T07:31:54.968Z,73.09
2022-10-11T07:34:22.820Z,72.02
2022-10-11T07:36:49.652Z,69.92
2022-10-11T07:39:16.216Z,68.91
2022-10-11T07:41:45.822Z,68.59
2022-10-11T07:44:12.667Z,68.36
2022-10-11T07:46:39.107Z,68.08
2022-10-11T07:49:05.545Z,67.69
2022-10-11T07:51:32.927Z,67.22
2022-10-11T07:54:03.382Z,65.67
2022-10-11T07:56:32.806Z,65.41
2022-10-11T07:59:03.410Z,64.71
2022-10-11T08:01:30.498Z,64.79
2022-10-11T08:03:57.272Z,64.37
2022-10-11T08:06:31.826Z,63.03
2022-10-11T08:09:00.386Z,63.16
2022-10-11T08:11:32.631Z,62.87
2022-10-11T08:14:00.038Z,61.81
2022-10-11T08:16:27.540Z,61.40
2022-10-11T08:18:59.308Z,61.36
2022-10-11T08:21:26.885Z,59.77
2022-10-11T08:23:54.412Z,59.60
2022-10-11T08:26:23.702Z,57.91
2022-10-11T08:28:53.580Z,57.75
2022-10-11T08:31:20.352Z,57.86
2022-10-11T08:33:46.836Z,58.34
2022-10-11T08:36:13.447Z,57.74
2022-10-11T08:38:40.078Z,55.91
2022-10-11T08:41:40.324Z,54.75
2022-10-11T08:44:25.417Z,56.27
2022-10-11T08:47:01.511Z,54.86
2022-10-11T08:49:30.234Z,56.07
2022-10-11T08:52:04.905Z,55.96
2022-10-11T08:54:38.712Z,56.70
2022-10-11T08:57:06.315Z,56.88
2022-10-11T08:59:49.447Z,57.90
2022-10-11T09:03:07.017Z,56.68
2022-10-11T09:05:35.160Z,54.64
2022-10-11T09:08:13.716Z,54.46
2022-10-11T09:10:51.663Z,54.90
2022-10-11T09:13:49.529Z,55.03
2022-10-11T09:16:33.600Z,55.22
2022-10-11T09:19:38.729Z,55.91
2022-10-11T09:22:38.368Z,57.52
2022-10-11T09:25:19.094Z,55.95
2022-10-11T09:28:17.749Z,55.30
2022-10-11T09:30:49.135Z,56.65
2022-10-11T09:33:34.651Z,58.04
2022-10-11T09:36:01.997Z,58.32
2022-10-11T09:38:38.955Z,57.75
2022-10-11T09:41:56.330Z,55.77
2022-10-11T09:44:24.670Z,55.44
2022-10-11T09:46:51.707Z,55.08
2022-10-11T09:49:20.430Z,54.50
2022-10-11T09:51:51.339Z,55.18
2022-10-11T09:54:18.442Z,57.48
2022-10-11T09:56:46.188Z,56.88
2022-10-11T09:59:29.257Z,56.71
2022-10-11T10:02:08.016Z,57.42
2022-10-11T10:04:36.080Z,56.58
2022-10-11T10:07:13.236Z,56.29
2022-10-11T10:09:39.690Z,56.07
2022-10-11T10:12:12.874Z,56.20
2022-10-11T10:14:40.664Z,58.19
2022-10-11T10:17:15.285Z,58.11
2022-10-11T10:19:48.440Z,59.13
2022-10-11T10:22:18.321Z,58.01
2022-10-11T10:24:44.857Z,56.71
2022-10-11T10:27:14.374Z,55.52
2022-10-11T10:29:41.273Z,53.39
2022-10-11T10:32:15.781Z,52.96
2022-10-11T10:34:55.558Z,50.62
2022-10-11T10:37:29.468Z,50.87
2022-10-11T10:40:21.999Z,51.88
2022-10-11T10:42:50.232Z,52.49
2022-10-11T10:45:21.459Z,50.43
2022-10-11T10:47:59.801Z,48.68
2022-10-11T10:50:42.469Z,48.97
2022-10-11T10:53:21.146Z,48.12
2022-10-11T10:56:11.234Z,47.18
2022-10-11T10:58:37.598Z,45.76
2022-10-11T11:01:20.702Z,46.30
2022-10-11T11:03:58.705Z,44.45
2022-10-11T11:06:35.658Z,44.18
2022-10-11T11:09:18.770Z,43.60
2022-10-11T11:11:48.194Z,45.54
2022-10-11T11:14:34.504Z,46.32
2022-10-11T11:17:22.213Z,44.90
2022-10-11T11:20:17.583Z,43.20
2022-10-11T11:22:53.547Z,43.67
2022-10-11T11:25:34.861Z,45.82
2022-10-11T11:28:18.541Z,46.96
2022-10-11T11:31:04.320Z,47.09
2022-10-11T11:34:07.937Z,49.01
2022-10-11T11:36:46.734Z,48.64
2022-10-11T11:39:17.610Z,48.01
2022-10-11T11:41:48.865Z,49.30
2022-10-11T11:44:50.384Z,46.71
2022-10-11T11:47:36.968Z,47.96
2022-10-11T11:50:15.116Z,49.02
2022-10-11T11:52:45.883Z,51.16
2022-10-11T11:55:23.317Z,53.84
2022-10-11T11:57:49.879Z,54.41
2022-10-11T12:00:21.349Z,56.00
2022-10-11T12:02:58.678Z,57.49
2022-10-11T12:05:33.684Z,57.84
2022-10-11T12:08:09.834Z,57.45
2022-10-11T12:10:54.590Z,54.27
2022-10-11T12:13:32.567Z,52.35
2022-10-11T12:16:03.502Z,50.82
2022-10-11T12:18:31.323Z,50.23
2022-10-11T12:21:04.002Z,50.33
2022-10-11T12:23:30.506Z,48.69
2022-10-11T12:26:20.528Z,48.80
2022-10-11T12:29:19.095Z,50.44
2022-10-11T12:31:48.269Z,52.34
2022-10-11T12:34:33.238Z,52.97
2022-10-11T12:37:04.506Z,53.21
2022-10-11T12:39:49.407Z,54.66
2022-10-11T12:42:38.125Z,54.07
2022-10-11T12:45:13.602Z,52.97
2022-10-11T12:47:54.632Z,53.83
2022-10-11T12:50:34.704Z,53.97
2022-10-11T12:53:17.797Z,53.50
2022-10-11T12:56:36.884Z,52.97
2022-10-11T12:59:04.886Z,52.81
2022-10-11T13:01:48.502Z,52.30
2022-10-11T13:04:17.465Z,52.45
2022-10-11T13:06:47.515Z,52.33
2022-10-11T13:09:24.458Z,52.19
2022-10-11T13:11:55.662Z,51.97
2022-10-11T13:14:24.782Z,51.77
2022-10-11T13:17:00.028Z,51.21
2022-10-11T13:19:27.484Z,50.88
2022-10-11T13:21:57.174Z,52.78
2022-10-11T13:24:24.731Z,53.74
2022-10-11T13:26:55.259Z,53.20
2022-10-11T13:29:31.012Z,54.11
2022-10-11T13:31:57.522Z,54.12
2022-10-11T13:34:24.361Z,54.90
2022-10-11T13:36:58.120Z,55.07
2022-10-11T13:39:42.902Z,55.87
2022-10-11T13:42:12.879Z,56.21
2022-10-11T13:44:40.239Z,56.02
2022-10-11T13:47:06.777Z,55.39
2022-10-11T13:49:40.404Z,56.77
2022-10-11T13:52:22.019Z,57.00
2022-10-11T13:55:00.916Z,58.19
2022-10-11T13:57:45.225Z,59.60
2022-10-11T14:00:14.670Z,58.54
2022-10-11T14:02:50.103Z,59.74
2022-10-11T14:05:29.809Z,60.22
2022-10-11T14:07:59.364Z,59.80
2022-10-11T14:10:26.092Z,60.13
2022-10-11T14:13:23.870Z,61.82
2022-10-11T14:16:03.424Z,62.44
2022-10-11T14:18:48.628Z,63.36
2022-10-11T14:21:46.823Z,64.23
2022-10-11T14:24:14.543Z,65.67
2022-10-11T14:26:43.032Z,65.88
2022-10-11T14:29:17.882Z,67.17
2022-10-11T14:31:44.376Z,68.20
2022-10-11T14:34:21.709Z,67.85
2022-10-11T14:36:48.866Z,69.18
2022-10-11T14:39:20.494Z,70.32
2022-10-11T14:41:47.085Z,70.67
2022-10-11T14:44:14.208Z,70.44
2022-10-11T14:46:41.294Z,70.63
2022-10-11T14:49:16.530Z,71.08
2022-10-11T14:51:44.426Z,70.99
2022-10-11T14:54:11.097Z,71.25
2022-10-11T14:56:38.082Z,71.12
2022-10-11T14:59:04.713Z,71.76
2022-10-11T15:01:31.279Z,72.17
2022-10-11T15:03:57.765Z,72.56
2022-10-11T15:06:30.521Z,72.32
2022-10-11T15:08:56.984Z,72.55
2022-10-11T15:11:24.169Z,72.28
2022-10-11T15:13:50.628Z,72.16
2022-10-11T15:16:19.235Z,72.26
2022-10-11T15:18:53.260Z,71.73
2022-10-11T15:21:22.023Z,72.22
2022-10-11T15:23:51.805Z,73.19
2022-10-11T15:26:21.180Z,73.60
2022-10-11T15:28:48.417Z,73.27
2022-10-11T15:31:15.269Z,72.87
2022-10-11T15:33:42.109Z,72.97
2022-10-11T15:36:12.819Z,74.15
2022-10-11T15:38:39.399Z,74.62
2022-10-11T15:41:06.165Z,74.77
2022-10-11T15:43:32.584Z,75.31
2022-10-11T15:45:59.153Z,75.10
2022-10-11T15:48:26.612Z,76.27
2022-10-11T15:50:53.940Z,77.01
2022-10-11T15:53:23.142Z,77.08
2022-10-11T15:55:52.653Z,77.26
2022-10-11T15:58:22.964Z,77.41
2022-10-11T16:00:54.020Z,77.29
2022-10-11T16:03:22.582Z,78.60
2022-10-11T16:05:49.309Z,78.66
2022-10-11T16:08:15.966Z,78.85
2022-10-11T16:10:42.429Z,78.97
2022-10-11T16:13:09.430Z,78.63
2022-10-11T16:15:40.707Z,78.61
2022-10-11T16:18:14.901Z,78.54
2022-10-11T16:20:44.602Z,78.47
2022-10-11T16:23:13.927Z,78.86
2022-10-11T16:25:41.213Z,78.87
2022-10-11T16:28:08.109Z,78.86
2022-10-11T16:30:38.843Z,79.09
2022-10-11T16:33:05.515Z,79.33
2022-10-11T16:35:32.789Z,78.01
2022-10-11T16:38:00.536Z,79.17
2022-10-11T16:40:28.206Z,79.60
2022-10-11T16:42:54.688Z,80.34
2022-10-11T16:45:21.179Z,78.80
2022-10-11T16:47:48.098Z,80.48
2022-10-11T16:50:14.706Z,79.89
2022-10-11T16:52:41.238Z,80.99
2022-10-11T16:55:07.993Z,80.29
2022-10-11T16:57:34.495Z,80.96
2022-10-11T17:00:00.916Z,82.63
2022-10-11T17:02:31.507Z,82.40
2022-10-11T17:04:58.927Z,83.36
2022-10-11T17:07:25.668Z,82.74
2022-10-11T17:09:52.188Z,82.51
2022-10-11T17:12:21.328Z,82.57
2022-10-11T17:14:48.637Z,82.66
2022-10-11T17:17:15.679Z,83.11
2022-10-11T17:19:45.322Z,83.46
2022-10-11T17:22:13.476Z,83.70
2022-10-11T17:24:39.984Z,83.25
2022-10-11T17:27:06.947Z,83.17
2022-10-11T17:29:33.501Z,82.73
2022-10-11T17:31:59.990Z,83.20
2022-10-11T17:34:26.822Z,82.92
2022-10-11T17:36:53.295Z,83.26
2022-10-11T17:39:22.359Z,83.00
2022-10-11T17:41:49.313Z,82.28
2022-10-11T17:44:18.427Z,83.25
2022-10-11T17:46:45.262Z,82.98
2022-10-11T17:49:12.591Z,83.25
2022-10-11T17:51:40.062Z,83.27
2022-10-11T17:54:06.823Z,84.36
2022-10-11T17:56:37.581Z,83.19
2022-10-11T17:59:04.553Z,82.96
2022-10-11T18:01:31.149Z,83.05
2022-10-11T18:04:16.948Z,83.53
2022-10-11T18:06:45.218Z,83.16
2022-10-11T18:09:12.657Z,83.52
2022-10-11T18:11:39.165Z,82.92
2022-10-11T18:14:05.669Z,83.41
2022-10-11T18:16:34.835Z,82.98
2022-10-11T18:19:03.199Z,83.15
2022-10-11T18:21:34.360Z,84.05
2022-10-11T18:24:07.783Z,83.38
2022-10-11T18:26:34.354Z,84.40
2022-10-11T18:29:00.795Z,84.61
2022-10-11T18:31:29.246Z,84.81
2022-10-11T18:33:55.918Z,85.26
2022-10-11T18:36:25.670Z,85.03
2022-10-11T18:38:54.227Z,84.99
2022-10-11T18:41:22.184Z,84.46
2022-10-11T18:43:53.807Z,84.50
2022-10-11T18:46:21.204Z,84.70
2022-10-11T18:48:49.630Z,84.76
2022-10-11T18:51:20.114Z,84.45
2022-10-11T18:53:47.607Z,84.88
2022-10-11T18:56:15.442Z,84.30
2022-10-11T18:58:43.001Z,84.61
2022-10-11T19:01:12.320Z,84.76
2022-10-11T19:03:38.918Z,85.81
2022-10-11T19:06:08.424Z,85.19
2022-10-11T19:08:35.204Z,86.15
2022-10-11T19:11:06.568Z,85.80
2022-10-11T19:13:33.679Z,86.23
2022-10-11T19:16:11.274Z,86.08
2022-10-11T19:18:43.185Z,86.12
2022-10-11T19:21:12.449Z,85.48
2022-10-11T19:23:43.498Z,86.14
2022-10-11T19:26:33.770Z,85.53
2022-10-11T19:29:04.059Z,85.55
2022-10-11T19:31:30.927Z,85.70
2022-10-11T19:34:00.578Z,85.35
2022-10-11T19:36:28.416Z,85.12
2022-10-11T19:38:56.997Z,85.93
2022-10-11T19:41:24.519Z,85.48
2022-10-11T19:43:51.564Z,85.79
2022-10-11T19:46:32.381Z,85.31
2022-10-11T19:49:07.005Z,86.02
2022-10-11T19:51:34.799Z,86.54
2022-10-11T19:54:03.591Z,86.18
2022-10-11T19:56:31.423Z,86.65
2022-10-11T19:58:58.091Z,86.32
2022-10-11T20:01:26.200Z,85.94
2022-10-11T20:03:55.479Z,86.03
2022-10-11T20:06:23.414Z,86.57
2022-10-11T20:09:10.362Z,86.26
2022-10-11T20:11:37.586Z,86.29
2022-10-11T20:14:04.305Z,86.17
2022-10-11T20:16:30.816Z,86.65
2022-10-11T20:19:00.793Z,86.63
2022-10-11T20:21:29.537Z,86.76
2022-10-11T20:24:01.402Z,86.97
2022-10-11T20:26:29.048Z,87.15
2022-10-11T20:28:56.491Z,86.41
2022-10-11T20:31:27.719Z,86.51
2022-10-11T20:33:56.114Z,86.56
2022-10-11T20:36:23.523Z,87.22
2022-10-11T20:38:50.790Z,86.82
2022-10-11T20:41:18.657Z,86.82
2022-10-11T20:43:46.662Z,87.06
2022-10-11T20:46:14.946Z,87.45
2022-10-11T20:48:41.741Z,86.52
2022-10-11T20:51:09.371Z,88.54
2022-10-11T20:53:37.612Z,87.75
2022-10-11T20:56:05.385Z,87.89
2022-10-11T20:58:31.811Z,88.57
2022-10-11T21:00:58.382Z,88.86
2022-10-11T21:03:24.867Z,88.52
2022-10-11T21:05:59.006Z,89.10
2022-10-11T21:08:25.664Z,88.42
2022-10-11T21:10:53.610Z,89.24
2022-10-11T21:13:20.239Z,87.94
2022-10-11T21:15:46.710Z,87.65
2022-10-11T21:18:13.514Z,87.38
2022-10-11T21:20:43.575Z,87.48
2022-10-11T21:23:10.624Z,87.31
2022-10-11T21:25:37.715Z,87.27
2022-10-11T21:28:05.010Z,87.39
2022-10-11T21:30:33.728Z,86.50
2022-10-11T21:33:00.310Z,87.01
2022-10-11T21:35:27.947Z,86.72
2022-10-11T21:37:55.650Z,87.52
2022-10-11T21:40:22.197Z,87.61
2022-10-11T21:42:48.625Z,87.05
2022-10-11T21:45:15.093Z,87.48
2022-10-11T21:47:43.587Z,87.82
2022-10-11T21:50:10.216Z,88.30
2022-10-11T21:52:37.027Z,87.70
2022-10-11T21:55:03.880Z,88.53
2022-10-11T21:57:30.363Z,86.90
2022-10-11T21:59:56.813Z,87.96
2022-10-11T22:02:23.231Z,87.38
2022-10-11T22:04:49.671Z,87.03
2022-10-11T22:07:16.436Z,87.06
2022-10-11T22:09:42.856Z,87.77
2022-10-11T22:12:09.298Z,87.22
2022-10-11T22:14:35.771Z,87.53
2022-10-11T22:17:02.216Z,86.95
2022-10-11T22:19:28.645Z,87.62
2022-10-11T22:21:55.081Z,87.24
2022-10-11T22:24:21.509Z,87.00
2022-10-11T22:26:48.060Z,86.60
2022-10-11T22:29:14.532Z,86.47
2022-10-11T22:31:41.412Z,87.25
2022-10-11T22:34:07.870Z,87.92
2022-10-11T22:36:34.330Z,88.23
2022-10-11T22:39:00.755Z,87.67
2022-10-11T22:41:27.250Z,87.24
2022-10-11T22:43:53.715Z,86.60
2022-10-11T22:46:20.202Z,87.61
2022-10-11T22:48:46.685Z,87.31
2022-10-11T22:51:13.645Z,87.18
2022-10-11T22:53:40.083Z,88.26
2022-10-11T22:56:06.870Z,89.31
2022-10-11T22:58:33.392Z,89.62
2022-10-11T23:01:09.735Z,89.03
2022-10-11T23:03:36.742Z,89.53
2022-10-11T23:06:03.298Z,88.94
2022-10-11T23:08:29.745Z,88.48
2022-10-11T23:10:56.329Z,88.04
2022-10-11T23:13:22.769Z,89.59
2022-10-11T23:15:49.323Z,89.01
2022-10-11T23:18:16.448Z,89.10
2022-10-11T23:20:42.886Z,89.60
2022-10-11T23:23:09.308Z,90.23
2022-10-11T23:25:35.780Z,90.69
2022-10-11T23:28:02.398Z,90.94
2022-10-11T23:30:29.508Z,90.95
2022-10-11T23:32:55.999Z,91.45
2022-10-11T23:35:22.578Z,91.40
2022-10-11T23:37:49.006Z,91.56
2022-10-11T23:40:15.630Z,92.11
2022-10-11T23:42:42.063Z,91.28
2022-10-11T23:45:08.991Z,91.16
2022-10-11T23:47:35.698Z,91.46
2022-10-11T23:50:02.253Z,91.66
2022-10-11T23:52:28.687Z,91.53
2022-10-11T23:54:56.194Z,91.11
2022-10-11T23:57:22.668Z,92.48
2022-10-11T23:59:49.135Z,92.46
